Time;durP1;ratioP1;P1;durP2;ratioP2;P2;SDS_P1;SDS_P2;PMS_P1;PMS_P2;Temp;Humidity;BMP_temperature;BMP_pressure;BME280_temperature;BME280_humidity;BME280_pressure;Samples;Min_cycle;Max_cycle;Signal;HPM_P1;HPM_P2
2022/01/04 00:00:54;;;;;;;1.50;1.33;;;;;;;;;;5032016;28;20605;-76
2022/01/04 00:03:21;;;;;;;2.13;1.50;;;;;;;;;;5043058;28;20565;-76
2022/01/04 00:05:48;;;;;;;1.43;1.33;;;;;;;;;;5047915;28;20482;-75
2022/01/04 00:08:15;;;;;;;1.67;1.57;;;;;;;;;;5049179;28;20446;-74
2022/01/04 00:10:44;;;;;;;3.23;1.67;;;;;;;;;;5051439;28;20810;-75
2022/01/04 00:13:24;;;;;;;2.20;1.40;;;;;;;;;;5051398;28;20810;-75
2022/01/04 00:15:52;;;;;;;1.80;1.20;;;;;;;;;;5051277;28;20461;-77
2022/01/04 00:18:19;;;;;;;1.60;1.23;;;;;;;;;;5051231;28;20875;-75
2022/01/04 00:20:46;;;;;;;1.43;1.43;;;;;;;;;;5051312;28;20464;-75
2022/01/04 00:23:13;;;;;;;1.30;1.30;;;;;;;;;;5050984;28;20470;-77
2022/01/04 00:25:40;;;;;;;4.40;1.77;;;;;;;;;;5051244;28;20450;-75
2022/01/04 00:28:09;;;;;;;2.45;1.55;;;;;;;;;;5051411;28;20464;-75
2022/01/04 00:30:36;;;;;;;1.40;1.40;;;;;;;;;;5054681;28;20200;-76
2022/01/04 00:33:04;;;;;;;1.40;1.30;;;;;;;;;;5055184;28;20934;-77
2022/01/04 00:35:31;;;;;;;2.20;1.60;;;;;;;;;;5055150;28;20448;-76
2022/01/04 00:37:58;;;;;;;2.10;1.63;;;;;;;;;;5055493;28;20795;-75
2022/01/04 00:40:25;;;;;;;1.50;1.40;;;;;;;;;;5055276;28;20440;-75
2022/01/04 00:42:55;;;;;;;1.50;1.40;;;;;;;;;;5054934;28;20451;-75
2022/01/04 00:45:23;;;;;;;2.50;2.00;;;;;;;;;;5055122;28;20443;-75
2022/01/04 00:50:33;;;;;;;2.10;1.60;;;;;;;;;;5054903;28;20468;-76
2022/01/04 00:53:00;;;;;;;1.43;1.23;;;;;;;;;;5055044;28;20450;-76
2022/01/04 00:55:28;;;;;;;1.80;1.70;;;;;;;;;;5055360;28;20442;-76
2022/01/04 00:57:55;;;;;;;2.40;1.40;;;;;;;;;;5054670;28;20985;-75
2022/01/04 01:00:23;;;;;;;1.80;1.70;;;;;;;;;;5054848;28;20801;-76
2022/01/04 01:02:50;;;;;;;2.00;1.73;;;;;;;;;;5054837;28;20451;-76
2022/01/04 01:05:18;;;;;;;1.57;1.47;;;;;;;;;;5054791;28;20494;-76
2022/01/04 01:07:45;;;;;;;1.80;1.30;;;;;;;;;;5054949;28;20485;-76
2022/01/04 01:10:28;;;;;;;1.30;1.30;;;;;;;;;;5054949;28;20502;-77
2022/01/04 01:12:55;;;;;;;1.70;1.50;;;;;;;;;;5054909;28;20472;-75
2022/01/04 01:15:24;;;;;;;1.50;1.40;;;;;;;;;;5054837;28;20490;-76
2022/01/04 01:17:51;;;;;;;1.80;1.60;;;;;;;;;;5054474;28;20448;-77
2022/01/04 01:20:18;;;;;;;1.70;1.60;;;;;;;;;;5054146;28;20448;-76
2022/01/04 01:22:45;;;;;;;1.40;1.30;;;;;;;;;;5053892;28;20880;-76
2022/01/04 01:25:13;;;;;;;1.60;1.50;;;;;;;;;;5054133;28;20490;-76
2022/01/04 01:27:41;;;;;;;1.60;1.53;;;;;;;;;;5054449;28;20468;-76
2022/01/04 01:30:09;;;;;;;2.80;1.60;;;;;;;;;;5054271;28;20446;-76
2022/01/04 01:32:37;;;;;;;1.60;1.50;;;;;;;;;;5054203;28;20446;-76
2022/01/04 01:35:05;;;;;;;1.40;1.40;;;;;;;;;;5054039;28;20434;-76
2022/01/04 01:37:33;;;;;;;2.00;1.90;;;;;;;;;;5054151;28;20524;-77
2022/01/04 01:40:00;;;;;;;1.90;1.80;;;;;;;;;;5053565;28;20459;-76
2022/01/04 01:42:27;;;;;;;2.70;1.43;;;;;;;;;;5053615;28;20439;-76
2022/01/04 01:44:54;;;;;;;1.90;1.30;;;;;;;;;;5053871;28;20476;-76
2022/01/04 01:47:21;;;;;;;1.57;1.47;;;;;;;;;;5053935;28;20467;-76
2022/01/04 01:49:50;;;;;;;2.17;2.07;;;;;;;;;;5053919;28;20939;-76
2022/01/04 01:52:17;;;;;;;1.60;1.50;;;;;;;;;;5053946;28;20466;-75
2022/01/04 01:54:44;;;;;;;1.73;1.63;;;;;;;;;;5053542;28;20849;-76
2022/01/04 01:57:11;;;;;;;1.67;1.67;;;;;;;;;;5053643;28;20466;-76
2022/01/04 01:59:38;;;;;;;2.00;1.90;;;;;;;;;;5053529;28;20929;-76
2022/01/04 02:02:05;;;;;;;2.07;1.90;;;;;;;;;;5053854;28;20451;-77
2022/01/04 02:04:32;;;;;;;2.33;2.13;;;;;;;;;;5053366;28;20490;-76
2022/01/04 02:07:01;;;;;;;1.70;1.60;;;;;;;;;;5053249;28;20966;-76
2022/01/04 02:09:28;;;;;;;1.97;1.83;;;;;;;;;;5053128;28;20457;-77
2022/01/04 02:11:55;;;;;;;1.80;1.70;;;;;;;;;;5053449;28;20544;-76
2022/01/04 02:14:24;;;;;;;1.97;1.87;;;;;;;;;;5052869;28;20926;-77
2022/01/04 02:16:51;;;;;;;2.03;1.73;;;;;;;;;;5053441;28;20467;-76
2022/01/04 02:19:18;;;;;;;1.80;1.70;;;;;;;;;;5053534;28;20442;-76
2022/01/04 02:21:46;;;;;;;1.93;1.83;;;;;;;;;;5052924;28;20946;-78
2022/01/04 02:24:13;;;;;;;1.67;1.57;;;;;;;;;;5052873;28;20540;-76
2022/01/04 02:26:41;;;;;;;2.70;1.77;;;;;;;;;;5053151;28;20475;-76
2022/01/04 02:29:08;;;;;;;2.40;2.30;;;;;;;;;;5052790;28;20898;-76
2022/01/04 02:31:35;;;;;;;2.10;2.00;;;;;;;;;;5052959;28;20534;-76
2022/01/04 02:34:02;;;;;;;3.70;2.10;;;;;;;;;;5052850;28;20444;-77
2022/01/04 02:36:29;;;;;;;2.10;2.00;;;;;;;;;;5053032;28;20476;-77
2022/01/04 02:38:58;;;;;;;2.13;1.93;;;;;;;;;;5052707;28;20937;-76
2022/01/04 02:41:25;;;;;;;1.80;1.50;;;;;;;;;;5052930;28;20444;-77
2022/01/04 02:43:52;;;;;;;2.13;1.90;;;;;;;;;;5052784;28;20866;-75
2022/01/04 02:46:19;;;;;;;2.47;2.27;;;;;;;;;;5052539;28;20478;-76
2022/01/04 02:48:46;;;;;;;2.87;2.07;;;;;;;;;;5053040;28;20453;-76
2022/01/04 02:51:13;;;;;;;2.40;2.20;;;;;;;;;;5052567;28;20929;-76
2022/01/04 02:53:41;;;;;;;2.20;2.10;;;;;;;;;;5052029;28;20455;-76
2022/01/04 02:56:09;;;;;;;2.10;2.00;;;;;;;;;;5052715;28;20466;-76
2022/01/04 02:58:36;;;;;;;2.03;1.93;;;;;;;;;;5052494;28;20811;-75
2022/01/04 03:01:04;;;;;;;2.13;2.00;;;;;;;;;;5052549;28;20501;-76
2022/01/04 03:03:31;;;;;;;3.10;2.40;;;;;;;;;;5052128;28;20475;-76
2022/01/04 03:05:58;;;;;;;2.80;2.60;;;;;;;;;;5052337;28;20463;-77
2022/01/04 03:08:25;;;;;;;3.40;2.50;;;;;;;;;;5052291;28;20490;-76
2022/01/04 03:10:52;;;;;;;2.67;2.47;;;;;;;;;;5052674;28;20439;-75
2022/01/04 03:13:21;;;;;;;2.50;2.30;;;;;;;;;;5053374;28;20498;-74
2022/01/04 03:15:48;;;;;;;2.37;2.27;;;;;;;;;;5053457;28;20829;-76
2022/01/04 03:18:15;;;;;;;2.50;2.40;;;;;;;;;;5052283;28;20931;-76
2022/01/04 03:20:42;;;;;;;2.70;2.50;;;;;;;;;;5052018;28;20497;-75
2022/01/04 03:23:10;;;;;;;3.23;2.97;;;;;;;;;;5051798;28;20443;-75
2022/01/04 03:25:37;;;;;;;2.20;2.10;;;;;;;;;;5052180;28;20476;-75
2022/01/04 03:28:05;;;;;;;2.73;2.53;;;;;;;;;;5052183;28;20498;-75
2022/01/04 03:30:33;;;;;;;2.47;2.30;;;;;;;;;;5051832;28;20443;-76
2022/01/04 03:33:00;;;;;;;3.40;2.57;;;;;;;;;;5051558;28;20939;-77
2022/01/04 03:35:28;;;;;;;2.57;2.37;;;;;;;;;;5051740;28;20437;-77
2022/01/04 03:37:55;;;;;;;1.80;1.80;;;;;;;;;;5051730;28;20498;-76
2022/01/04 03:40:22;;;;;;;2.27;2.17;;;;;;;;;;5043299;28;20951;-75
2022/01/04 03:42:49;;;;;;;2.17;2.00;;;;;;;;;;5051862;28;20451;-76
2022/01/04 03:45:16;;;;;;;3.73;2.13;;;;;;;;;;5052009;28;20474;-76
2022/01/04 03:47:45;;;;;;;2.10;2.00;;;;;;;;;;5051654;28;20540;-76
2022/01/04 03:50:12;;;;;;;1.93;1.40;;;;;;;;;;5051732;28;20451;-75
2022/01/04 03:52:39;;;;;;;2.13;2.03;;;;;;;;;;5051621;28;20438;-76
2022/01/04 03:55:07;;;;;;;3.90;1.63;;;;;;;;;;5051580;28;21118;-75
2022/01/04 03:57:34;;;;;;;1.43;1.43;;;;;;;;;;5051426;28;20877;-76
2022/01/04 04:00:01;;;;;;;1.77;1.70;;;;;;;;;;5051603;28;20467;-76
2022/01/04 04:02:28;;;;;;;1.60;1.60;;;;;;;;;;5051302;28;20960;-77
2022/01/04 04:04:56;;;;;;;1.70;1.60;;;;;;;;;;5050673;28;20481;-77
2022/01/04 04:07:23;;;;;;;1.80;1.70;;;;;;;;;;5051700;28;20487;-75
2022/01/04 04:09:50;;;;;;;5.00;4.27;;;;;;;;;;5051695;28;20448;-77
2022/01/04 04:12:17;;;;;;;2.13;2.00;;;;;;;;;;5051546;28;20446;-76
2022/01/04 04:14:45;;;;;;;1.70;1.60;;;;;;;;;;5051485;28;20946;-76
2022/01/04 04:17:12;;;;;;;1.70;1.60;;;;;;;;;;5051440;28;20463;-76
2022/01/04 04:19:39;;;;;;;1.67;1.57;;;;;;;;;;5051557;28;20443;-76
2022/01/04 04:22:07;;;;;;;1.53;1.50;;;;;;;;;;5051606;28;20443;-76
2022/01/04 04:24:34;;;;;;;1.57;1.47;;;;;;;;;;5051144;28;20524;-77
2022/01/04 04:27:01;;;;;;;1.30;1.30;;;;;;;;;;5051015;28;20548;-77
2022/01/04 04:29:28;;;;;;;1.47;1.47;;;;;;;;;;5051581;28;20446;-76
2022/01/04 04:31:55;;;;;;;1.73;1.70;;;;;;;;;;5051275;28;20447;-76
2022/01/04 04:34:22;;;;;;;2.20;2.10;;;;;;;;;;5050854;28;20448;-76
2022/01/04 04:36:49;;;;;;;1.63;1.53;;;;;;;;;;5050751;28;20546;-77
2022/01/04 04:39:18;;;;;;;1.27;1.17;;;;;;;;;;5051300;28;20452;-76
2022/01/04 04:41:45;;;;;;;1.50;1.40;;;;;;;;;;5051136;28;20473;-76
2022/01/04 04:44:12;;;;;;;1.30;1.20;;;;;;;;;;5050921;28;20447;-75
2022/01/04 04:46:39;;;;;;;1.17;1.17;;;;;;;;;;5050752;28;20865;-75
2022/01/04 04:49:06;;;;;;;1.67;1.57;;;;;;;;;;5050913;28;20502;-76
2022/01/04 04:51:34;;;;;;;1.93;1.83;;;;;;;;;;5051266;28;20868;-75
2022/01/04 04:54:01;;;;;;;2.37;1.70;;;;;;;;;;5050799;28;20924;-75
2022/01/04 04:56:29;;;;;;;1.60;1.50;;;;;;;;;;5050805;28;20889;-75
2022/01/04 04:58:56;;;;;;;1.37;1.37;;;;;;;;;;5051199;28;20447;-76
2022/01/04 05:01:23;;;;;;;1.40;1.30;;;;;;;;;;5050977;28;20448;-75
2022/01/04 05:03:51;;;;;;;1.60;1.50;;;;;;;;;;5050638;28;20446;-76
2022/01/04 05:06:19;;;;;;;1.47;1.47;;;;;;;;;;5051823;28;20482;-76
2022/01/04 05:08:46;;;;;;;1.70;1.60;;;;;;;;;;5051224;28;20850;-76
2022/01/04 05:11:13;;;;;;;1.60;1.50;;;;;;;;;;5050690;28;20455;-76
2022/01/04 05:13:41;;;;;;;1.73;1.63;;;;;;;;;;5050900;28;20443;-76
2022/01/04 05:16:08;;;;;;;1.17;1.17;;;;;;;;;;5053128;28;20971;-75
2022/01/04 05:18:36;;;;;;;1.80;1.50;;;;;;;;;;5055072;28;20442;-76
2022/01/04 05:21:03;;;;;;;1.60;1.50;;;;;;;;;;5049280;28;20442;-75
2022/01/04 05:23:30;;;;;;;1.53;1.43;;;;;;;;;;5042857;28;20455;-77
2022/01/04 05:25:58;;;;;;;1.50;1.50;;;;;;;;;;5054527;28;20514;-75
2022/01/04 05:28:25;;;;;;;1.40;1.40;;;;;;;;;;5047062;28;20467;-76
2022/01/04 05:30:53;;;;;;;2.10;2.00;;;;;;;;;;5034724;28;20452;-76
2022/01/04 05:33:20;;;;;;;1.50;1.40;;;;;;;;;;5042005;28;20939;-76
2022/01/04 05:35:48;;;;;;;1.63;1.60;;;;;;;;;;5054640;28;20460;-77
2022/01/04 05:38:15;;;;;;;1.73;1.63;;;;;;;;;;5047924;28;20452;-77
2022/01/04 05:40:43;;;;;;;2.17;1.67;;;;;;;;;;5053172;28;20525;-76
2022/01/04 05:43:10;;;;;;;2.30;1.83;;;;;;;;;;5045313;28;20517;-75
2022/01/04 05:45:37;;;;;;;2.10;2.00;;;;;;;;;;5043942;28;20521;-77
2022/01/04 05:48:06;;;;;;;1.73;1.63;;;;;;;;;;5047529;28;20462;-76
2022/01/04 05:50:34;;;;;;;3.43;1.60;;;;;;;;;;5053873;28;20451;-76
2022/01/04 05:53:01;;;;;;;1.23;1.23;;;;;;;;;;5054091;28;20541;-76
2022/01/04 05:55:28;;;;;;;1.77;1.67;;;;;;;;;;5053758;28;20990;-76
2022/01/04 05:57:55;;;;;;;1.60;1.50;;;;;;;;;;5054222;28;20446;-76
2022/01/04 06:00:22;;;;;;;1.80;1.50;;;;;;;;;;5053815;28;20828;-77
2022/01/04 06:02:49;;;;;;;1.90;1.80;;;;;;;;;;5053613;28;20446;-76
2022/01/04 06:05:18;;;;;;;1.37;1.30;;;;;;;;;;5053795;28;20486;-76
2022/01/04 06:07:45;;;;;;;2.60;2.40;;;;;;;;;;5054232;28;20987;-77
2022/01/04 06:10:14;;;;;;;1.60;1.50;;;;;;;;;;5055488;28;20501;-76
2022/01/04 06:15:25;;;;;;;2.83;2.27;;;;;;;;;;5057847;28;20409;-75
2022/01/04 06:17:52;;;;;;;1.97;1.87;;;;;;;;;;5060324;28;20431;-76
2022/01/04 06:20:22;;;;;;;2.00;1.90;;;;;;;;;;5061009;28;20456;-76
2022/01/04 06:22:49;;;;;;;1.93;1.70;;;;;;;;;;5059610;28;20475;-77
2022/01/04 06:25:22;;;;;;;2.00;1.90;;;;;;;;;;5054515;28;20555;-76
2022/01/04 06:27:51;;;;;;;2.37;2.20;;;;;;;;;;5052957;28;20467;-77
2022/01/04 06:30:19;;;;;;;2.17;2.07;;;;;;;;;;5046492;28;21151;-77
2022/01/04 06:32:46;;;;;;;2.27;2.10;;;;;;;;;;5043771;28;20444;-76
2022/01/04 06:35:14;;;;;;;2.03;1.93;;;;;;;;;;5038450;28;20444;-76
2022/01/04 06:37:43;;;;;;;2.90;2.20;;;;;;;;;;5033144;28;20962;-75
2022/01/04 06:40:11;;;;;;;2.67;2.40;;;;;;;;;;5033126;28;20444;-76
2022/01/04 06:42:38;;;;;;;1.50;1.50;;;;;;;;;;5032697;28;20532;-75
2022/01/04 06:45:05;;;;;;;2.20;1.80;;;;;;;;;;5033057;28;20893;-76
2022/01/04 06:47:32;;;;;;;1.93;1.83;;;;;;;;;;5032534;28;20474;-75
2022/01/04 06:49:59;;;;;;;1.80;1.60;;;;;;;;;;5032896;28;20451;-76
2022/01/04 06:52:26;;;;;;;2.80;1.53;;;;;;;;;;5033077;28;20447;-77
2022/01/04 06:54:55;;;;;;;1.77;1.73;;;;;;;;;;5032842;28;20471;-75
2022/01/04 06:57:22;;;;;;;1.80;1.70;;;;;;;;;;5032664;28;20471;-76
2022/01/04 06:59:49;;;;;;;2.33;2.17;;;;;;;;;;5032784;28;20443;-77
2022/01/04 07:02:16;;;;;;;1.93;1.80;;;;;;;;;;5035117;28;20494;-76
2022/01/04 07:04:43;;;;;;;1.80;1.70;;;;;;;;;;5052889;28;20447;-75
2022/01/04 07:07:10;;;;;;;1.57;1.47;;;;;;;;;;5053001;28;20483;-76
2022/01/04 07:09:37;;;;;;;1.77;1.67;;;;;;;;;;5052810;28;20459;-76
2022/01/04 07:12:06;;;;;;;2.63;1.87;;;;;;;;;;5052791;28;20442;-75
2022/01/04 07:14:33;;;;;;;1.40;1.30;;;;;;;;;;5052602;28;20943;-76
2022/01/04 07:17:00;;;;;;;2.07;1.60;;;;;;;;;;5053004;28;20463;-77
2022/01/04 07:19:27;;;;;;;1.30;1.30;;;;;;;;;;5053611;28;20447;-76
2022/01/04 07:21:54;;;;;;;4.53;1.60;;;;;;;;;;5053289;28;20447;-76
2022/01/04 07:24:21;;;;;;;2.40;1.90;;;;;;;;;;5052961;28;20485;-76
2022/01/04 07:26:48;;;;;;;2.30;1.80;;;;;;;;;;5055115;28;20556;-77
2022/01/04 07:29:16;;;;;;;1.47;1.40;;;;;;;;;;5053842;28;20451;-76
2022/01/04 07:31:43;;;;;;;1.47;1.30;;;;;;;;;;5052919;28;20446;-77
2022/01/04 07:34:11;;;;;;;1.50;1.40;;;;;;;;;;5052595;28;20447;-76
2022/01/04 07:36:38;;;;;;;2.23;2.03;;;;;;;;;;5052593;28;20510;-76
2022/01/04 07:39:05;;;;;;;2.30;2.10;;;;;;;;;;5051904;28;20455;-77
2022/01/04 07:41:33;;;;;;;1.73;1.63;;;;;;;;;;5051966;28;20497;-75
2022/01/04 07:44:00;;;;;;;2.10;1.50;;;;;;;;;;5051740;28;20448;-77
2022/01/04 07:46:28;;;;;;;1.50;1.40;;;;;;;;;;5051856;28;20487;-76
2022/01/04 07:48:55;;;;;;;1.63;1.50;;;;;;;;;;5039835;28;20440;-77
2022/01/04 07:51:22;;;;;;;3.03;2.50;;;;;;;;;;5040153;28;20965;-76
2022/01/04 07:53:49;;;;;;;2.33;2.13;;;;;;;;;;5031995;28;20456;-75
2022/01/04 07:56:17;;;;;;;2.47;2.10;;;;;;;;;;5038929;28;20462;-74
2022/01/04 07:58:44;;;;;;;1.80;1.27;;;;;;;;;;5043451;28;20816;-76
2022/01/04 08:01:13;;;;;;;2.20;1.40;;;;;;;;;;5052414;28;20455;-75
2022/01/04 08:03:41;;;;;;;1.47;1.37;;;;;;;;;;5052351;28;20466;-75
2022/01/04 08:06:08;;;;;;;1.60;1.50;;;;;;;;;;5051872;28;20478;-76
2022/01/04 08:08:35;;;;;;;1.83;1.30;;;;;;;;;;5052000;28;21074;-77
2022/01/04 08:11:02;;;;;;;1.47;1.27;;;;;;;;;;5053225;28;20443;-75
2022/01/04 08:13:29;;;;;;;1.17;1.07;;;;;;;;;;5052795;28;20917;-77
2022/01/04 08:15:56;;;;;;;1.10;1.00;;;;;;;;;;5048724;28;20502;-76
2022/01/04 08:18:23;;;;;;;1.47;1.37;;;;;;;;;;5031946;28;20821;-76
2022/01/04 08:20:56;;;;;;;1.93;1.60;;;;;;;;;;5031890;28;20479;-76
2022/01/04 08:23:23;;;;;;;1.30;1.20;;;;;;;;;;5032267;28;20456;-78
2022/01/04 08:25:50;;;;;;;1.50;1.40;;;;;;;;;;5031872;28;20492;-76
2022/01/04 08:28:17;;;;;;;2.77;1.37;;;;;;;;;;5032039;28;20449;-75
2022/01/04 08:30:44;;;;;;;3.70;1.60;;;;;;;;;;5031598;28;20439;-77
2022/01/04 08:33:11;;;;;;;2.20;2.07;;;;;;;;;;5032281;28;20515;-76
2022/01/04 08:35:39;;;;;;;2.30;1.47;;;;;;;;;;5031413;28;20863;-77
2022/01/04 08:38:08;;;;;;;1.40;1.30;;;;;;;;;;5031611;28;20524;-76
2022/01/04 08:40:35;;;;;;;1.83;1.27;;;;;;;;;;5031658;28;20459;-76
2022/01/04 08:43:03;;;;;;;1.23;1.17;;;;;;;;;;5031868;28;20445;-76
2022/01/04 08:45:30;;;;;;;1.10;1.10;;;;;;;;;;5033081;28;20437;-75
2022/01/04 08:47:57;;;;;;;2.10;1.40;;;;;;;;;;5031540;28;20449;-76
2022/01/04 08:50:24;;;;;;;2.30;1.20;;;;;;;;;;5032698;28;20458;-75
2022/01/04 08:52:54;;;;;;;2.40;1.40;;;;;;;;;;5035707;28;20448;-77
2022/01/04 08:55:22;;;;;;;1.40;1.30;;;;;;;;;;5035329;28;20452;-76
2022/01/04 08:57:50;;;;;;;1.70;1.27;;;;;;;;;;5035032;28;20965;-77
2022/01/04 09:00:17;;;;;;;1.40;1.30;;;;;;;;;;5035616;28;20933;-76
2022/01/04 09:02:44;;;;;;;2.63;1.60;;;;;;;;;;5035142;28;20437;-75
2022/01/04 09:05:12;;;;;;;1.10;1.10;;;;;;;;;;5054341;28;20834;-77
2022/01/04 09:07:39;;;;;;;1.43;1.20;;;;;;;;;;5055210;28;20496;-76
2022/01/04 09:10:07;;;;;;;1.40;1.30;;;;;;;;;;5054690;28;20452;-77
2022/01/04 09:12:45;;;;;;;1.07;1.07;;;;;;;;;;5054854;28;20827;-77
2022/01/04 09:15:45;;;;;;;1.50;1.50;;;;;;;;;;5055514;28;20844;-76
2022/01/04 09:20:57;;;;;;;1.33;1.33;;;;;;;;;;5044081;28;20580;-75
2022/01/04 09:23:24;;;;;;;3.30;1.10;;;;;;;;;;5054921;28;20459;-76
2022/01/04 09:25:52;;;;;;;1.63;1.60;;;;;;;;;;5055222;28;20583;-76
2022/01/04 09:28:21;;;;;;;1.33;1.23;;;;;;;;;;5055307;28;20452;-77
2022/01/04 09:30:50;;;;;;;1.57;1.33;;;;;;;;;;5055422;28;20441;-76
2022/01/04 09:33:17;;;;;;;1.40;1.40;;;;;;;;;;5055637;28;20545;-76
2022/01/04 09:35:44;;;;;;;2.63;1.67;;;;;;;;;;5055424;28;20470;-76
2022/01/04 09:38:12;;;;;;;1.67;1.57;;;;;;;;;;5055249;28;20455;-75
2022/01/04 09:40:39;;;;;;;1.73;1.63;;;;;;;;;;5055567;28;20455;-76
2022/01/04 09:43:06;;;;;;;1.07;1.07;;;;;;;;;;5055143;28;20459;-75
2022/01/04 09:45:35;;;;;;;2.47;1.27;;;;;;;;;;5055101;28;20452;-76
2022/01/04 09:48:02;;;;;;;2.07;1.80;;;;;;;;;;5054343;28;20509;-76
2022/01/04 09:50:29;;;;;;;2.80;1.47;;;;;;;;;;5055181;28;20935;-78
2022/01/04 09:52:57;;;;;;;3.13;1.53;;;;;;;;;;5048740;28;20450;-76
2022/01/04 09:55:24;;;;;;;1.70;1.20;;;;;;;;;;5042858;28;20521;-75
2022/01/04 09:57:51;;;;;;;1.60;1.50;;;;;;;;;;5053342;28;21206;-75
2022/01/04 10:00:19;;;;;;;1.30;1.30;;;;;;;;;;5053351;28;20498;-76
2022/01/04 10:02:49;;;;;;;1.40;1.40;;;;;;;;;;5050821;28;20456;-75
2022/01/04 10:05:17;;;;;;;2.00;1.70;;;;;;;;;;5053118;28;20910;-75
2022/01/04 10:07:45;;;;;;;1.27;1.20;;;;;;;;;;5054250;28;20486;-76
2022/01/04 10:10:12;;;;;;;1.97;1.63;;;;;;;;;;5054357;28;20502;-76
2022/01/04 10:12:50;;;;;;;1.60;1.50;;;;;;;;;;5054920;28;20470;-77
2022/01/04 10:15:29;;;;;;;1.80;1.70;;;;;;;;;;5054692;28;20444;-76
2022/01/04 10:17:58;;;;;;;2.00;1.80;;;;;;;;;;5054960;28;20479;-78
2022/01/04 10:20:25;;;;;;;2.07;1.33;;;;;;;;;;5054455;28;20447;-76
2022/01/04 10:22:52;;;;;;;2.60;1.53;;;;;;;;;;5053732;28;20539;-75
2022/01/04 10:25:20;;;;;;;3.20;1.60;;;;;;;;;;5054190;28;20445;-75
2022/01/04 10:27:48;;;;;;;1.43;1.33;;;;;;;;;;5053772;28;20479;-76
2022/01/04 10:30:20;;;;;;;2.03;1.90;;;;;;;;;;5054325;28;20978;-76
2022/01/04 10:32:48;;;;;;;2.10;1.63;;;;;;;;;;5054976;28;20432;-76
2022/01/04 10:35:23;;;;;;;2.27;1.60;;;;;;;;;;5062989;28;20490;-77
2022/01/04 10:37:50;;;;;;;1.80;1.70;;;;;;;;;;5059927;28;20817;-75
2022/01/04 10:40:17;;;;;;;1.83;1.73;;;;;;;;;;5065315;28;20922;-78
2022/01/04 10:42:44;;;;;;;2.00;1.90;;;;;;;;;;5076102;28;20440;-75
2022/01/04 10:45:22;;;;;;;3.37;1.43;;;;;;;;;;5061160;28;20450;-78
2022/01/04 10:47:49;;;;;;;1.77;1.53;;;;;;;;;;5058602;28;20481;-76
2022/01/04 10:50:30;;;;;;;1.90;1.40;;;;;;;;;;5034626;28;20448;-76
2022/01/04 10:52:57;;;;;;;1.87;1.77;;;;;;;;;;5034507;28;20452;-76
2022/01/04 10:55:24;;;;;;;1.50;1.43;;;;;;;;;;5035665;28;20447;-76
2022/01/04 10:57:51;;;;;;;1.80;1.70;;;;;;;;;;5043140;28;20471;-75
2022/01/04 11:00:20;;;;;;;1.83;1.73;;;;;;;;;;5053665;28;20495;-75
2022/01/04 11:02:47;;;;;;;2.33;2.10;;;;;;;;;;5053581;28;20436;-75
2022/01/04 11:05:14;;;;;;;1.83;1.73;;;;;;;;;;5053780;28;20449;-78
2022/01/04 11:07:56;;;;;;;2.77;1.50;;;;;;;;;;5053052;28;20534;-75
2022/01/04 11:10:25;;;;;;;1.80;1.63;;;;;;;;;;5051093;28;20445;-77
2022/01/04 11:12:52;;;;;;;1.80;1.70;;;;;;;;;;5052202;28;20444;-76
2022/01/04 11:15:19;;;;;;;4.80;1.90;;;;;;;;;;5052858;28;20465;-77
2022/01/04 11:17:46;;;;;;;2.07;1.70;;;;;;;;;;5052641;28;20510;-77
2022/01/04 11:20:13;;;;;;;1.80;1.70;;;;;;;;;;5052374;28;20446;-77
2022/01/04 11:22:41;;;;;;;1.70;1.60;;;;;;;;;;5052320;28;20936;-77
2022/01/04 11:25:08;;;;;;;1.67;1.67;;;;;;;;;;5052569;28;21006;-77
2022/01/04 11:27:37;;;;;;;2.13;2.03;;;;;;;;;;5052107;28;20545;-78
2022/01/04 11:30:08;;;;;;;3.50;1.90;;;;;;;;;;5052324;28;20448;-77
2022/01/04 11:32:38;;;;;;;2.20;2.00;;;;;;;;;;5052533;28;20437;-77
2022/01/04 11:35:09;;;;;;;2.60;2.40;;;;;;;;;;5052555;28;20441;-77
2022/01/04 11:37:38;;;;;;;3.53;1.63;;;;;;;;;;5052151;28;20969;-78
2022/01/04 11:40:20;;;;;;;2.17;2.07;;;;;;;;;;5052430;28;20450;-78
2022/01/04 11:42:48;;;;;;;2.40;2.20;;;;;;;;;;5051582;28;20475;-79
2022/01/04 11:45:16;;;;;;;3.27;2.40;;;;;;;;;;5051682;28;21006;-76
2022/01/04 11:47:47;;;;;;;2.33;2.23;;;;;;;;;;5050498;28;20576;-77
2022/01/04 11:50:16;;;;;;;2.87;2.67;;;;;;;;;;5051798;28;20435;-77
2022/01/04 11:52:45;;;;;;;2.87;2.30;;;;;;;;;;5052175;28;20556;-79
2022/01/04 11:55:18;;;;;;;1.80;1.70;;;;;;;;;;5052191;28;20438;-77
2022/01/04 11:57:45;;;;;;;2.70;1.90;;;;;;;;;;5050757;28;20515;-77
2022/01/04 12:00:23;;;;;;;3.13;1.90;;;;;;;;;;5051698;28;20453;-77
2022/01/04 12:03:02;;;;;;;1.90;1.80;;;;;;;;;;5051544;28;20436;-77
2022/01/04 12:05:29;;;;;;;2.10;1.90;;;;;;;;;;5051478;28;20424;-77
2022/01/04 12:07:56;;;;;;;2.23;2.13;;;;;;;;;;5051520;28;20484;-78
2022/01/04 12:10:34;;;;;;;2.00;1.90;;;;;;;;;;5051783;28;20441;-78
2022/01/04 12:13:03;;;;;;;2.50;2.30;;;;;;;;;;5051468;28;20441;-78
2022/01/04 12:15:51;;;;;;;2.33;2.00;;;;;;;;;;5052534;28;20839;-78
2022/01/04 12:18:37;;;;;;;2.23;2.13;;;;;;;;;;5048158;28;20445;-78
2022/01/04 12:21:17;;;;;;;2.70;2.50;;;;;;;;;;5051317;28;21004;-76
2022/01/04 12:23:45;;;;;;;2.73;2.37;;;;;;;;;;5051805;28;20474;-78
2022/01/04 12:26:25;;;;;;;2.73;2.53;;;;;;;;;;5050488;28;20521;-77
2022/01/04 12:29:10;;;;;;;2.20;2.10;;;;;;;;;;5051324;28;20477;-77
2022/01/04 12:31:45;;;;;;;2.30;2.10;;;;;;;;;;5051259;28;20447;-77
2022/01/04 12:34:26;;;;;;;3.00;2.70;;;;;;;;;;5051221;28;20421;-77
2022/01/04 12:36:54;;;;;;;4.53;3.20;;;;;;;;;;5053137;28;20971;-79
2022/01/04 12:39:22;;;;;;;3.00;2.70;;;;;;;;;;5053095;28;20439;-78
2022/01/04 12:41:51;;;;;;;3.40;3.10;;;;;;;;;;5053703;28;20861;-76
2022/01/04 12:44:23;;;;;;;3.60;3.30;;;;;;;;;;5053561;28;20479;-77
2022/01/04 12:46:50;;;;;;;4.27;3.27;;;;;;;;;;5052972;28;20873;-77
2022/01/04 12:49:19;;;;;;;2.53;2.33;;;;;;;;;;5051974;28;20448;-77
2022/01/04 12:51:47;;;;;;;3.20;2.50;;;;;;;;;;5051104;28;20536;-78
2022/01/04 12:54:16;;;;;;;3.50;2.57;;;;;;;;;;5051086;28;20453;-77
2022/01/04 12:56:44;;;;;;;2.87;2.33;;;;;;;;;;5051099;28;20457;-77
2022/01/04 12:59:11;;;;;;;2.70;2.50;;;;;;;;;;5051209;28;20441;-77
2022/01/04 13:01:38;;;;;;;4.43;2.43;;;;;;;;;;5051054;28;20444;-78
2022/01/04 13:04:20;;;;;;;2.80;2.47;;;;;;;;;;5051050;28;20452;-77
2022/01/04 13:06:47;;;;;;;2.70;2.30;;;;;;;;;;5051072;28;20506;-77
2022/01/04 13:09:18;;;;;;;3.27;2.77;;;;;;;;;;5050979;28;20816;-79
2022/01/04 13:11:48;;;;;;;2.70;2.50;;;;;;;;;;5051102;28;20512;-77
2022/01/04 13:14:20;;;;;;;2.37;2.20;;;;;;;;;;5050958;28;20519;-77
2022/01/04 13:16:48;;;;;;;4.07;2.60;;;;;;;;;;5050980;28;20905;-77
2022/01/04 13:19:15;;;;;;;3.13;2.40;;;;;;;;;;5050781;28;20985;-77
2022/01/04 13:21:43;;;;;;;2.83;2.40;;;;;;;;;;5050891;28;20441;-78
2022/01/04 13:24:10;;;;;;;2.63;2.40;;;;;;;;;;5051140;28;20499;-78
2022/01/04 13:26:38;;;;;;;3.17;2.80;;;;;;;;;;5050617;28;20511;-77
2022/01/04 13:29:05;;;;;;;2.70;2.60;;;;;;;;;;5050731;28;20476;-77
2022/01/04 13:31:32;;;;;;;2.87;2.67;;;;;;;;;;5050790;28;20439;-76
2022/01/04 13:33:59;;;;;;;4.53;3.40;;;;;;;;;;5050797;28;20436;-78
2022/01/04 13:36:27;;;;;;;2.23;2.13;;;;;;;;;;5051472;28;20569;-77
2022/01/04 13:38:58;;;;;;;2.47;2.27;;;;;;;;;;5054149;28;20447;-77
2022/01/04 13:41:35;;;;;;;2.37;2.13;;;;;;;;;;5054558;28;20433;-77
2022/01/04 13:44:04;;;;;;;2.40;2.30;;;;;;;;;;5054273;28;20869;-77
2022/01/04 13:46:34;;;;;;;4.30;2.30;;;;;;;;;;5054968;28;20473;-77
2022/01/04 13:49:02;;;;;;;2.80;2.60;;;;;;;;;;5053870;28;20974;-78
2022/01/04 13:51:31;;;;;;;2.80;2.50;;;;;;;;;;5054466;28;20493;-78
2022/01/04 13:54:00;;;;;;;4.93;4.50;;;;;;;;;;5054570;28;20447;-78
2022/01/04 13:56:32;;;;;;;2.73;2.53;;;;;;;;;;5054764;28;20480;-77
2022/01/04 13:59:00;;;;;;;3.00;2.80;;;;;;;;;;5054778;28;20903;-77
2022/01/04 14:01:30;;;;;;;2.13;2.03;;;;;;;;;;5053782;28;20983;-77
2022/01/04 14:03:59;;;;;;;1.27;1.17;;;;;;;;;;5054111;28;20445;-79
2022/01/04 14:06:44;;;;;;;1.30;1.20;;;;;;;;;;5054386;28;20463;-77
2022/01/04 14:09:12;;;;;;;3.03;1.50;;;;;;;;;;5053828;28;20994;-78
2022/01/04 14:11:40;;;;;;;1.43;1.37;;;;;;;;;;5054300;28;20451;-78
2022/01/04 14:14:08;;;;;;;1.13;1.13;;;;;;;;;;5053958;28;20446;-78
2022/01/04 14:16:42;;;;;;;1.00;1.00;;;;;;;;;;5053856;28;20467;-78
2022/01/04 14:19:10;;;;;;;1.57;1.47;;;;;;;;;;5054245;28;20426;-78
2022/01/04 14:21:38;;;;;;;1.10;1.10;;;;;;;;;;5053730;28;20450;-78
2022/01/04 14:24:26;;;;;;;1.23;1.23;;;;;;;;;;5053827;28;20448;-78
2022/01/04 14:26:53;;;;;;;1.80;1.70;;;;;;;;;;5053347;28;20552;-79
2022/01/04 14:29:27;;;;;;;2.00;1.90;;;;;;;;;;5053775;28;20474;-79
2022/01/04 14:31:57;;;;;;;1.57;1.47;;;;;;;;;;5053671;28;20426;-77
2022/01/04 14:34:24;;;;;;;1.87;1.77;;;;;;;;;;5053524;28;20437;-78
2022/01/04 14:36:51;;;;;;;1.67;1.57;;;;;;;;;;5053749;28;20469;-77
2022/01/04 14:39:18;;;;;;;1.67;1.60;;;;;;;;;;5053112;28;21062;-77
2022/01/04 14:41:45;;;;;;;2.20;2.10;;;;;;;;;;5053243;28;20484;-77
2022/01/04 14:44:12;;;;;;;1.97;1.87;;;;;;;;;;5055083;28;20821;-77
2022/01/04 14:46:39;;;;;;;2.33;2.23;;;;;;;;;;5053407;28;20466;-77
2022/01/04 14:49:08;;;;;;;2.10;2.00;;;;;;;;;;5052337;28;20478;-77
2022/01/04 14:51:35;;;;;;;2.60;2.50;;;;;;;;;;5053306;28;20448;-76
2022/01/04 14:54:02;;;;;;;2.70;2.50;;;;;;;;;;5053355;28;20824;-76
2022/01/04 14:56:29;;;;;;;2.43;2.30;;;;;;;;;;5053182;28;20461;-78
2022/01/04 14:58:56;;;;;;;2.85;2.75;;;;;;;;;;5052923;28;20437;-77